createdAt,value
2022-12-28T00:01:06.498Z,42.72
2022-12-28T00:03:33.039Z,42.82
2022-12-28T00:05:59.566Z,42.91
2022-12-28T00:08:25.942Z,42.93
2022-12-28T00:11:09.046Z,42.74
2022-12-28T00:13:37.171Z,42.87
2022-12-28T00:16:10.767Z,42.90
2022-12-28T00:18:37.403Z,42.73
2022-12-28T00:21:04.729Z,42.79
2022-12-28T00:23:31.583Z,42.71
2022-12-28T00:26:05.999Z,42.79
2022-12-28T00:28:32.359Z,42.78
2022-12-28T00:30:58.719Z,42.81
2022-12-28T00:33:25.103Z,42.86
2022-12-28T00:35:55.368Z,42.80
2022-12-28T00:38:21.874Z,42.90
2022-12-28T00:40:48.215Z,42.77
2022-12-28T00:43:14.570Z,42.76
2022-12-28T00:45:44.309Z,42.92
2022-12-28T00:48:10.719Z,42.74
2022-12-28T00:50:37.245Z,42.90
2022-12-28T00:53:03.919Z,42.83
2022-12-28T00:55:30.455Z,42.75
2022-12-28T00:58:00.454Z,42.90
2022-12-28T01:00:27.681Z,42.80
2022-12-28T01:02:54.852Z,42.72
2022-12-28T01:05:22.296Z,42.67
2022-12-28T01:07:48.785Z,42.78
2022-12-28T01:10:15.268Z,42.80
2022-12-28T01:12:41.638Z,42.93
2022-12-28T01:15:08.869Z,42.91
2022-12-28T01:17:35.466Z,42.78
2022-12-28T01:20:01.915Z,42.91
2022-12-28T01:22:28.507Z,42.78
2022-12-28T01:24:54.983Z,42.79
2022-12-28T01:27:21.439Z,43.00
2022-12-28T01:29:48.072Z,42.87
2022-12-28T01:32:14.518Z,42.95
2022-12-28T01:34:40.999Z,42.90
2022-12-28T01:37:07.394Z,42.91
2022-12-28T01:39:33.779Z,43.04
2022-12-28T01:42:01.369Z,42.83
2022-12-28T01:44:42.481Z,42.66
2022-12-28T01:47:29.106Z,42.83
2022-12-28T01:50:01.829Z,42.94
2022-12-28T01:52:30.309Z,42.88
2022-12-28T01:55:02.876Z,42.99
2022-12-28T01:57:31.276Z,42.78
2022-12-28T02:00:02.151Z,42.77
2022-12-28T02:02:29.825Z,42.99
2022-12-28T02:04:57.747Z,42.93
2022-12-28T02:07:44.407Z,42.91
2022-12-28T02:10:44.457Z,42.97
2022-12-28T02:12:59.230Z,42.96
2022-12-28T02:15:26.035Z,42.85
2022-12-28T02:17:52.492Z,42.95
2022-12-28T02:20:19.343Z,42.83
2022-12-28T02:22:59.712Z,42.99
2022-12-28T02:25:26.129Z,43.04
2022-12-28T02:28:11.610Z,42.81
2022-12-28T02:30:45.859Z,42.92
2022-12-28T02:33:32.475Z,42.88
2022-12-28T02:36:01.447Z,42.86
2022-12-28T02:38:37.810Z,43.00
2022-12-28T02:41:09.628Z,42.91
2022-12-28T02:43:36.196Z,43.00
2022-12-28T02:46:27.905Z,42.98
2022-12-28T02:49:12.959Z,42.86
2022-12-28T02:52:02.373Z,42.94
2022-12-28T02:54:50.692Z,42.85
2022-12-28T02:57:17.074Z,42.93
2022-12-28T02:59:43.414Z,43.08
2022-12-28T03:02:48.145Z,42.92
2022-12-28T03:05:42.484Z,42.95
2022-12-28T03:08:19.820Z,43.00
2022-12-28T03:10:58.168Z,42.91
2022-12-28T03:13:45.349Z,42.85
2022-12-28T03:16:30.535Z,42.84
2022-12-28T03:19:20.639Z,42.87
2022-12-28T03:22:07.605Z,43.00
2022-12-28T03:24:53.981Z,43.01
2022-12-28T03:27:40.838Z,42.88
2022-12-28T03:30:29.882Z,42.82
2022-12-28T03:32:56.539Z,42.95
2022-12-28T03:35:26.375Z,42.88
2022-12-28T03:37:56.737Z,42.82
2022-12-28T03:40:23.119Z,42.94
2022-12-28T03:43:10.459Z,42.95
2022-12-28T03:45:45.297Z,43.00
2022-12-28T03:48:14.869Z,42.93
2022-12-28T03:50:43.011Z,43.01
2022-12-28T03:53:09.676Z,42.92
2022-12-28T03:55:37.955Z,42.90
2022-12-28T03:58:05.208Z,42.91
2022-12-28T04:00:31.925Z,42.96
2022-12-28T04:02:58.539Z,42.77
2022-12-28T04:05:25.016Z,42.89
2022-12-28T04:07:51.686Z,43.00
2022-12-28T04:10:18.030Z,42.83
2022-12-28T04:12:45.046Z,43.02
2022-12-28T04:15:11.508Z,42.91
2022-12-28T04:17:37.916Z,42.93
2022-12-28T04:20:04.839Z,42.82
2022-12-28T04:22:31.220Z,42.91
2022-12-28T04:24:57.570Z,42.89
2022-12-28T04:27:24.219Z,42.92
2022-12-28T04:29:50.822Z,42.81
2022-12-28T04:32:17.268Z,42.83
2022-12-28T04:34:48.368Z,42.90
2022-12-28T04:37:15.417Z,42.92
2022-12-28T04:39:55.063Z,42.91
2022-12-28T04:42:23.632Z,42.84
2022-12-28T04:44:49.973Z,43.01
2022-12-28T04:47:16.410Z,42.90
2022-12-28T04:49:42.769Z,42.99
2022-12-28T04:52:09.188Z,42.82
2022-12-28T04:54:35.630Z,42.88
2022-12-28T04:57:02.103Z,42.95
2022-12-28T04:59:28.494Z,42.90
2022-12-28T05:01:55.013Z,42.96
2022-12-28T05:04:21.459Z,42.93
2022-12-28T05:06:47.882Z,42.89
2022-12-28T05:09:14.245Z,42.90
2022-12-28T05:11:40.637Z,42.87
2022-12-28T05:14:07.043Z,42.96
2022-12-28T05:16:33.507Z,42.70
2022-12-28T05:19:00.035Z,42.78
2022-12-28T05:21:27.428Z,42.88
2022-12-28T05:23:54.246Z,43.00
2022-12-28T05:26:21.890Z,42.98
2022-12-28T05:28:48.696Z,42.77
2022-12-28T05:31:17.084Z,42.81
2022-12-28T05:33:43.645Z,42.92
2022-12-28T05:36:11.594Z,42.93
2022-12-28T05:38:38.191Z,42.92
2022-12-28T05:41:25.060Z,42.99
2022-12-28T05:43:51.934Z,42.92
2022-12-28T05:46:24.603Z,43.05
2022-12-28T05:48:51.454Z,42.89
2022-12-28T05:51:19.116Z,42.97
2022-12-28T05:53:45.964Z,42.87
2022-12-28T05:56:14.933Z,42.85
2022-12-28T05:58:42.148Z,42.89
2022-12-28T06:01:16.334Z,42.75
2022-12-28T06:03:42.827Z,42.97
2022-12-28T06:06:13.341Z,42.85
2022-12-28T06:08:40.138Z,42.84
2022-12-28T06:11:07.968Z,42.95
2022-12-28T06:13:34.864Z,42.85
2022-12-28T06:16:18.789Z,42.69
2022-12-28T06:18:45.826Z,42.83
2022-12-28T06:21:16.999Z,42.76
2022-12-28T06:23:44.354Z,42.81
2022-12-28T06:26:12.378Z,42.60
2022-12-28T06:28:39.765Z,42.72
2022-12-28T06:31:13.593Z,42.81
2022-12-28T06:33:40.183Z,42.65
2022-12-28T06:36:19.607Z,42.76
2022-12-28T06:38:47.400Z,42.62
2022-12-28T06:41:15.063Z,42.64
2022-12-28T06:43:42.889Z,42.77
2022-12-28T06:46:09.744Z,42.70
2022-12-28T06:48:36.666Z,42.53
2022-12-28T06:51:04.985Z,42.62
2022-12-28T06:53:32.811Z,42.69
2022-12-28T06:56:00.815Z,42.59
2022-12-28T06:58:28.100Z,42.61
2022-12-28T07:00:54.974Z,42.54
2022-12-28T07:03:23.584Z,42.61
2022-12-28T07:05:50.583Z,42.51
2022-12-28T07:08:18.045Z,42.51
2022-12-28T07:10:44.615Z,42.60
2022-12-28T07:13:11.024Z,42.55
2022-12-28T07:15:37.454Z,42.56
2022-12-28T07:18:03.903Z,42.71
2022-12-28T07:20:37.051Z,42.61
2022-12-28T07:23:06.933Z,42.72
2022-12-28T07:25:33.326Z,42.63
2022-12-28T07:27:59.781Z,42.64
2022-12-28T07:30:26.221Z,42.55
2022-12-28T07:32:52.682Z,42.51
2022-12-28T07:35:19.098Z,42.78
2022-12-28T07:37:46.211Z,42.79
2022-12-28T07:40:12.680Z,42.63
2022-12-28T07:42:39.068Z,42.71
2022-12-28T07:45:09.062Z,42.58
2022-12-28T07:47:35.782Z,42.65
2022-12-28T07:50:02.928Z,42.67
2022-12-28T07:52:29.340Z,42.85
2022-12-28T07:54:55.819Z,42.71
2022-12-28T07:57:22.200Z,42.68
2022-12-28T07:59:49.955Z,42.82
2022-12-28T08:02:16.459Z,42.87
2022-12-28T08:04:46.209Z,42.73
2022-12-28T08:07:15.202Z,42.75
2022-12-28T08:09:41.603Z,42.69
2022-12-28T08:12:08.038Z,42.78
2022-12-28T08:14:34.459Z,42.89
2022-12-28T08:17:00.888Z,42.91
2022-12-28T08:19:27.314Z,42.91
2022-12-28T08:21:53.731Z,42.77
2022-12-28T08:24:20.187Z,42.86
2022-12-28T08:26:47.511Z,42.79
2022-12-28T08:29:19.149Z,42.77
2022-12-28T08:31:46.049Z,42.66
2022-12-28T08:34:14.452Z,42.99
2022-12-28T08:36:40.924Z,42.81
2022-12-28T08:39:07.474Z,42.83
2022-12-28T08:41:33.944Z,42.77
2022-12-28T08:44:00.428Z,42.82
2022-12-28T08:46:28.217Z,42.76
2022-12-28T08:48:55.512Z,42.71
2022-12-28T08:51:21.856Z,42.76
2022-12-28T08:53:48.455Z,42.95
2022-12-28T08:56:16.923Z,42.80
2022-12-28T08:58:44.639Z,42.88
2022-12-28T09:01:11.074Z,42.95
2022-12-28T09:03:38.670Z,42.94
2022-12-28T09:06:05.777Z,42.90
2022-12-28T09:08:32.230Z,42.96
2022-12-28T09:10:59.302Z,42.97
2022-12-28T09:13:25.696Z,42.90
2022-12-28T09:16:02.395Z,42.90
2022-12-28T09:18:28.830Z,43.04
2022-12-28T09:20:55.559Z,43.01
2022-12-28T09:23:22.167Z,43.01
2022-12-28T09:25:48.646Z,43.02
2022-12-28T09:28:15.270Z,42.90
2022-12-28T09:30:41.723Z,42.96
2022-12-28T09:33:26.610Z,43.00
2022-12-28T09:35:56.911Z,42.90
2022-12-28T09:38:23.894Z,42.85
2022-12-28T09:40:50.345Z,42.95
2022-12-28T09:43:17.454Z,43.10
2022-12-28T09:45:44.271Z,42.85
2022-12-28T09:48:14.225Z,42.94
2022-12-28T09:50:40.989Z,43.10
2022-12-28T09:53:07.369Z,42.96
2022-12-28T09:55:35.131Z,43.14
2022-12-28T09:58:02.689Z,42.92
2022-12-28T10:00:41.297Z,43.03
2022-12-28T10:03:14.509Z,43.06
2022-12-28T10:05:41.013Z,42.94
2022-12-28T10:08:10.716Z,43.15
2022-12-28T10:10:37.138Z,42.96
2022-12-28T10:13:37.140Z,42.98
2022-12-28T10:15:58.759Z,43.08
2022-12-28T10:18:27.353Z,42.98
2022-12-28T10:20:54.967Z,43.02
2022-12-28T10:23:23.795Z,42.88
2022-12-28T10:25:53.853Z,42.92
2022-12-28T10:28:21.126Z,42.90
2022-12-28T10:30:49.638Z,42.96
2022-12-28T10:33:19.353Z,42.99
2022-12-28T10:35:50.507Z,42.85
2022-12-28T10:38:22.363Z,42.79
2022-12-28T10:40:56.039Z,42.95
2022-12-28T10:43:22.795Z,42.86
2022-12-28T10:45:50.608Z,42.80
2022-12-28T10:48:22.721Z,42.82
2022-12-28T10:50:51.937Z,42.79
2022-12-28T10:53:23.229Z,42.86
2022-12-28T10:55:49.700Z,42.90
2022-12-28T10:58:29.492Z,42.94
2022-12-28T11:01:15.795Z,42.86
2022-12-28T11:03:45.890Z,42.93
2022-12-28T11:06:19.950Z,42.78
2022-12-28T11:09:09.610Z,42.80
2022-12-28T11:11:36.008Z,42.86
2022-12-28T11:14:05.523Z,42.93
2022-12-28T11:16:34.878Z,42.88
2022-12-28T11:19:01.319Z,42.84
2022-12-28T11:21:27.712Z,42.82
2022-12-28T11:23:54.388Z,42.87
2022-12-28T11:26:21.292Z,42.95
2022-12-28T11:28:49.110Z,42.75
2022-12-28T11:31:19.506Z,42.90
2022-12-28T11:33:48.287Z,42.96
2022-12-28T11:36:16.198Z,42.82
2022-12-28T11:38:44.244Z,42.88
2022-12-28T11:41:34.222Z,42.91
2022-12-28T11:44:02.903Z,43.02
2022-12-28T11:46:35.459Z,43.09
2022-12-28T11:49:05.676Z,43.05
2022-12-28T11:51:33.163Z,43.07
2022-12-28T11:54:00.803Z,43.05
2022-12-28T11:56:43.731Z,43.17
2022-12-28T11:59:30.052Z,43.20
2022-12-28T12:02:03.759Z,43.00
2022-12-28T12:04:34.616Z,43.17
2022-12-28T12:07:03.812Z,43.08
2022-12-28T12:09:38.371Z,42.89
2022-12-28T12:12:17.717Z,43.10
2022-12-28T12:14:47.212Z,43.03
2022-12-28T12:17:36.885Z,42.98
2022-12-28T12:20:15.137Z,43.10
2022-12-28T12:22:43.839Z,43.10
2022-12-28T12:25:29.178Z,42.89
2022-12-28T12:28:01.096Z,43.02
2022-12-28T12:30:29.351Z,43.09
2022-12-28T12:32:58.422Z,43.04
2022-12-28T12:35:27.059Z,42.96
2022-12-28T12:38:00.900Z,43.03
2022-12-28T12:40:42.515Z,42.92
2022-12-28T12:43:32.264Z,42.91
2022-12-28T12:46:16.827Z,43.08
2022-12-28T12:48:43.229Z,43.19
2022-12-28T12:51:28.058Z,42.99
2022-12-28T12:54:13.343Z,42.93
2022-12-28T12:56:50.508Z,43.05
2022-12-28T12:59:20.004Z,43.16
2022-12-28T13:01:58.727Z,43.02
2022-12-28T13:04:26.521Z,42.97
2022-12-28T13:06:56.117Z,42.94
2022-12-28T13:09:25.137Z,42.88
2022-12-28T13:11:51.592Z,43.08
2022-12-28T13:14:21.954Z,42.98
2022-12-28T13:16:53.367Z,42.93
2022-12-28T13:19:23.392Z,42.84
2022-12-28T13:21:50.774Z,42.92
2022-12-28T13:24:39.462Z,43.04
2022-12-28T13:27:17.752Z,43.02
2022-12-28T13:29:50.479Z,43.06
2022-12-28T13:32:25.692Z,43.01
2022-12-28T13:34:52.122Z,43.04
2022-12-28T13:37:19.126Z,42.99
2022-12-28T13:39:48.435Z,43.00
2022-12-28T13:42:17.890Z,42.99
2022-12-28T13:45:10.589Z,43.07
2022-12-28T13:47:39.320Z,42.99
2022-12-28T13:50:26.751Z,42.94
2022-12-28T13:53:04.871Z,43.05
2022-12-28T13:55:34.058Z,42.94
2022-12-28T13:58:04.266Z,43.09
2022-12-28T14:00:31.992Z,42.81
2022-12-28T14:02:58.775Z,43.00
2022-12-28T14:05:27.167Z,43.09
2022-12-28T14:07:55.038Z,42.99
2022-12-28T14:10:22.444Z,43.00
2022-12-28T14:12:49.555Z,42.88
2022-12-28T14:15:16.625Z,42.94
2022-12-28T14:17:43.570Z,43.01
2022-12-28T14:20:10.379Z,43.06
2022-12-28T14:22:38.368Z,43.10
2022-12-28T14:25:12.940Z,43.00
2022-12-28T14:27:45.112Z,43.04
2022-12-28T14:30:22.606Z,43.02
2022-12-28T14:32:49.153Z,42.95
2022-12-28T14:35:20.750Z,42.91
2022-12-28T14:37:51.067Z,42.96
2022-12-28T14:40:43.794Z,43.09
2022-12-28T14:43:15.586Z,43.04
2022-12-28T14:46:06.657Z,43.15
2022-12-28T14:48:32.283Z,43.08
2022-12-28T14:51:06.549Z,43.07
2022-12-28T14:53:33.300Z,42.99
2022-12-28T14:56:06.535Z,42.94
2022-12-28T14:58:39.034Z,42.91
2022-12-28T15:01:08.668Z,42.92
2022-12-28T15:03:50.567Z,42.90
2022-12-28T15:06:17.046Z,43.16
2022-12-28T15:08:46.739Z,43.00
2022-12-28T15:11:14.210Z,42.92
2022-12-28T15:13:41.407Z,42.94
2022-12-28T15:16:11.056Z,42.99
2022-12-28T15:18:38.330Z,43.03
2022-12-28T15:21:05.579Z,42.94
2022-12-28T15:23:32.953Z,42.92
2022-12-28T15:26:05.213Z,42.96
2022-12-28T15:28:31.661Z,43.08
2022-12-28T15:30:58.111Z,43.08
2022-12-28T15:33:24.640Z,42.98
2022-12-28T15:35:51.073Z,43.02
2022-12-28T15:38:17.455Z,43.04
2022-12-28T15:40:43.812Z,43.05
2022-12-28T15:43:10.224Z,42.99
2022-12-28T15:45:36.672Z,43.11
2022-12-28T15:48:03.395Z,43.01
2022-12-28T15:50:29.839Z,42.94
2022-12-28T15:52:56.467Z,43.14
2022-12-28T15:55:22.918Z,43.14
2022-12-28T15:57:49.303Z,43.05
2022-12-28T16:00:18.919Z,43.09
2022-12-28T16:02:46.475Z,43.04
2022-12-28T16:05:13.221Z,43.08
2022-12-28T16:07:39.714Z,43.08
2022-12-28T16:10:06.667Z,43.00
2022-12-28T16:12:33.057Z,43.08
2022-12-28T16:14:59.536Z,43.08
2022-12-28T16:17:26.149Z,42.97
2022-12-28T16:19:52.570Z,43.03
2022-12-28T16:22:19.108Z,43.12
2022-12-28T16:24:45.550Z,43.09
2022-12-28T16:27:12.074Z,43.00
2022-12-28T16:29:38.517Z,43.03
2022-12-28T16:32:05.175Z,42.91
2022-12-28T16:34:32.189Z,43.02
2022-12-28T16:36:59.494Z,43.08
2022-12-28T16:39:28.266Z,42.95
2022-12-28T16:41:54.846Z,43.00
2022-12-28T16:44:22.484Z,43.04
2022-12-28T16:46:49.168Z,42.94
2022-12-28T16:49:16.094Z,42.99
2022-12-28T16:51:43.910Z,42.95
2022-12-28T16:54:13.727Z,42.96
2022-12-28T16:56:40.145Z,43.04
2022-12-28T16:59:06.528Z,43.16
2022-12-28T17:01:33.086Z,42.92
2022-12-28T17:04:04.006Z,42.97
2022-12-28T17:06:31.036Z,42.92
2022-12-28T17:08:57.441Z,42.95
2022-12-28T17:11:23.804Z,43.09
2022-12-28T17:13:50.239Z,43.04
2022-12-28T17:16:16.675Z,43.02
2022-12-28T17:18:43.302Z,43.13
2022-12-28T17:21:10.472Z,42.99
2022-12-28T17:23:38.571Z,43.11
2022-12-28T17:26:05.740Z,42.92
2022-12-28T17:28:32.173Z,43.06
2022-12-28T17:31:06.052Z,43.12
2022-12-28T17:33:38.890Z,42.96
2022-12-28T17:36:06.059Z,43.12
2022-12-28T17:38:32.493Z,43.09
2022-12-28T17:40:58.895Z,43.04
2022-12-28T17:43:25.351Z,42.92
2022-12-28T17:45:51.881Z,42.92
2022-12-28T17:48:20.201Z,43.13
2022-12-28T17:50:47.215Z,43.00
2022-12-28T17:53:13.809Z,42.92
2022-12-28T17:55:40.265Z,43.05
2022-12-28T17:58:06.671Z,42.95
2022-12-28T18:00:33.141Z,43.00
2022-12-28T18:02:59.630Z,43.05
2022-12-28T18:05:26.135Z,42.97
2022-12-28T18:07:52.526Z,43.08
2022-12-28T18:10:21.490Z,42.88
2022-12-28T18:12:48.542Z,43.02
2022-12-28T18:15:15.036Z,42.94
2022-12-28T18:17:41.387Z,43.04
2022-12-28T18:20:08.247Z,42.99
2022-12-28T18:22:34.653Z,43.01
2022-12-28T18:25:01.075Z,43.12
2022-12-28T18:27:27.448Z,43.10
2022-12-28T18:29:53.841Z,43.03
2022-12-28T18:32:20.226Z,43.10
2022-12-28T18:34:46.786Z,42.99
2022-12-28T18:37:13.292Z,43.08
2022-12-28T18:39:39.702Z,42.96
2022-12-28T18:42:06.092Z,43.20
2022-12-28T18:44:32.510Z,43.08
2022-12-28T18:46:59.009Z,43.05
2022-12-28T18:49:25.747Z,43.15
2022-12-28T18:51:52.110Z,43.11
2022-12-28T18:54:18.558Z,43.03
2022-12-28T18:56:45.143Z,43.21
2022-12-28T18:59:11.683Z,43.02
2022-12-28T19:02:06.055Z,43.11
2022-12-28T19:04:26.455Z,43.11
2022-12-28T19:06:52.972Z,42.96
2022-12-28T19:09:19.382Z,43.10
2022-12-28T19:11:45.872Z,43.13
2022-12-28T19:14:13.418Z,43.01
2022-12-28T19:16:39.943Z,43.14
2022-12-28T19:19:07.915Z,43.08
2022-12-28T19:21:38.923Z,43.12
2022-12-28T19:24:15.742Z,43.15
2022-12-28T19:26:42.973Z,42.96
2022-12-28T19:29:10.803Z,42.96
2022-12-28T19:31:37.241Z,43.14
2022-12-28T19:34:03.707Z,43.01
2022-12-28T19:36:31.357Z,43.09
2022-12-28T19:38:57.819Z,43.15
2022-12-28T19:41:24.768Z,43.00
2022-12-28T19:43:51.552Z,43.02
2022-12-28T19:46:19.424Z,43.16
2022-12-28T19:48:46.126Z,42.96
2022-12-28T19:51:13.050Z,43.25
2022-12-28T19:53:39.503Z,42.95
2022-12-28T19:56:07.219Z,43.18
2022-12-28T19:58:34.705Z,43.01
2022-12-28T20:01:05.361Z,43.18
2022-12-28T20:03:31.864Z,43.13
2022-12-28T20:06:04.602Z,43.13
2022-12-28T20:08:31.007Z,42.97
2022-12-28T20:10:57.459Z,43.02
2022-12-28T20:13:23.899Z,43.03
2022-12-28T20:15:50.390Z,43.12
2022-12-28T20:18:16.985Z,43.19
2022-12-28T20:21:17.412Z,43.15
2022-12-28T20:23:30.153Z,43.07
2022-12-28T20:25:56.616Z,43.04
2022-12-28T20:28:23.187Z,43.06
2022-12-28T20:30:50.050Z,43.14
2022-12-28T20:33:17.599Z,43.22
2022-12-28T20:35:55.546Z,42.96
2022-12-28T20:38:21.936Z,43.08
2022-12-28T20:40:48.324Z,43.02
2022-12-28T20:43:23.779Z,42.99
2022-12-28T20:45:54.250Z,43.18
2022-12-28T20:48:21.023Z,43.03
2022-12-28T20:50:50.341Z,43.21
2022-12-28T20:53:16.764Z,42.97
2022-12-28T20:55:43.239Z,43.20
2022-12-28T20:58:09.679Z,43.09
2022-12-28T21:00:38.807Z,43.19
2022-12-28T21:03:05.787Z,43.05
2022-12-28T21:05:32.390Z,43.12
2022-12-28T21:07:59.295Z,43.10
2022-12-28T21:10:25.729Z,42.96
2022-12-28T21:12:52.160Z,43.12
2022-12-28T21:15:18.658Z,43.05
2022-12-28T21:17:45.066Z,43.11
2022-12-28T21:20:11.533Z,43.12
2022-12-28T21:22:37.875Z,43.09
2022-12-28T21:25:04.477Z,43.11
2022-12-28T21:27:30.825Z,43.02
2022-12-28T21:29:58.097Z,43.10
2022-12-28T21:32:24.536Z,43.12
2022-12-28T21:34:50.977Z,43.15
2022-12-28T21:37:35.828Z,42.90
2022-12-28T21:40:03.675Z,43.03
2022-12-28T21:42:30.037Z,42.91
2022-12-28T21:44:56.481Z,43.04
2022-12-28T21:47:22.910Z,43.07
2022-12-28T21:49:49.411Z,43.08
2022-12-28T21:52:15.873Z,42.90
2022-12-28T21:54:42.332Z,43.08
2022-12-28T21:57:10.265Z,43.06
2022-12-28T21:59:36.700Z,43.07
2022-12-28T22:02:21.703Z,43.10
2022-12-28T22:05:20.783Z,42.92
2022-12-28T22:07:47.363Z,43.00
2022-12-28T22:10:32.437Z,42.95
2022-12-28T22:12:58.960Z,42.97
2022-12-28T22:15:44.526Z,43.16
2022-12-28T22:18:44.826Z,43.02
2022-12-28T22:21:11.368Z,43.12
2022-12-28T22:23:37.796Z,43.08
2022-12-28T22:26:04.261Z,43.13
2022-12-28T22:28:30.798Z,43.08
2022-12-28T22:30:57.232Z,43.01
2022-12-28T22:33:23.634Z,43.08
2022-12-28T22:35:49.994Z,42.96
2022-12-28T22:38:16.413Z,42.96
2022-12-28T22:40:42.802Z,43.06
2022-12-28T22:43:09.195Z,43.03
2022-12-28T22:45:35.690Z,43.12
2022-12-28T22:48:02.216Z,43.15
2022-12-28T22:50:29.049Z,43.07
2022-12-28T22:52:55.906Z,43.07
2022-12-28T22:55:22.268Z,43.08
2022-12-28T22:57:48.607Z,43.03
2022-12-28T23:00:15.102Z,43.11
2022-12-28T23:02:42.878Z,43.07
2022-12-28T23:05:09.683Z,43.15
2022-12-28T23:07:38.472Z,43.10
2022-12-28T23:10:05.697Z,43.03
2022-12-28T23:12:32.160Z,43.01
2022-12-28T23:15:18.695Z,43.01
2022-12-28T23:17:46.581Z,43.18
2022-12-28T23:20:31.679Z,42.96
2022-12-28T23:22:58.130Z,43.19
2022-12-28T23:25:43.501Z,42.95
2022-12-28T23:28:11.776Z,43.16
2022-12-28T23:30:39.817Z,42.93
2022-12-28T23:33:06.310Z,43.13
2022-12-28T23:35:32.727Z,43.12
2022-12-28T23:37:59.255Z,43.12
2022-12-28T23:40:25.854Z,43.06
2022-12-28T23:42:54.235Z,43.07
2022-12-28T23:45:20.835Z,43.10
2022-12-28T23:47:47.408Z,43.08
2022-12-28T23:50:14.583Z,43.07
2022-12-28T23:52:41.186Z,43.03
2022-12-28T23:55:08.031Z,43.13
2022-12-28T23:57:34.450Z,43.12
